sensor_id;sensor_type;location;lat;lon;timestamp;P1;durP1;ratioP1;P2;durP2;ratioP2
2622;SDS011;1321;48.690;9.022;2023-04-24T00:02:27;11.77;;;11.57;;
2622;SDS011;1321;48.690;9.022;2023-04-24T00:04:56;11.97;;;11.77;;
2622;SDS011;1321;48.690;9.022;2023-04-24T00:07:28;12.43;;;12.13;;
2622;SDS011;1321;48.690;9.022;2023-04-24T00:09:58;12.57;;;12.07;;
2622;SDS011;1321;48.690;9.022;2023-04-24T00:12:26;12.00;;;11.80;;
2622;SDS011;1321;48.690;9.022;2023-04-24T00:14:54;11.93;;;11.73;;
2622;SDS011;1321;48.690;9.022;2023-04-24T00:17:23;12.03;;;11.80;;
2622;SDS011;1321;48.690;9.022;2023-04-24T00:19:51;11.90;;;11.70;;
2622;SDS011;1321;48.690;9.022;2023-04-24T00:22:24;12.10;;;11.90;;
2622;SDS011;1321;48.690;9.022;2023-04-24T00:24:53;12.27;;;11.97;;
2622;SDS011;1321;48.690;9.022;2023-04-24T00:27:23;12.17;;;11.97;;
2622;SDS011;1321;48.690;9.022;2023-04-24T00:29:51;12.40;;;12.10;;
2622;SDS011;1321;48.690;9.022;2023-04-24T00:32:19;12.23;;;11.93;;
2622;SDS011;1321;48.690;9.022;2023-04-24T00:34:48;12.30;;;12.00;;
2622;SDS011;1321;48.690;9.022;2023-04-24T00:37:16;12.10;;;11.90;;
2622;SDS011;1321;48.690;9.022;2023-04-24T00:39:44;11.90;;;11.70;;
2622;SDS011;1321;48.690;9.022;2023-04-24T00:42:12;11.83;;;11.63;;
2622;SDS011;1321;48.690;9.022;2023-04-24T00:44:42;12.63;;;12.30;;
2622;SDS011;1321;48.690;9.022;2023-04-24T00:47:10;12.17;;;11.87;;
2622;SDS011;1321;48.690;9.022;2023-04-24T00:49:40;12.10;;;11.90;;
2622;SDS011;1321;48.690;9.022;2023-04-24T00:52:08;11.93;;;11.73;;
2622;SDS011;1321;48.690;9.022;2023-04-24T00:54:37;11.90;;;11.60;;
2622;SDS011;1321;48.690;9.022;2023-04-24T00:57:05;11.63;;;11.33;;
2622;SDS011;1321;48.690;9.022;2023-04-24T00:59:33;11.90;;;11.70;;
2622;SDS011;1321;48.690;9.022;2023-04-24T01:02:04;11.87;;;11.40;;
2622;SDS011;1321;48.690;9.022;2023-04-24T01:04:32;10.53;;;10.33;;
2622;SDS011;1321;48.690;9.022;2023-04-24T01:07:01;10.77;;;10.57;;
2622;SDS011;1321;48.690;9.022;2023-04-24T01:09:29;11.07;;;10.70;;
2622;SDS011;1321;48.690;9.022;2023-04-24T01:11:57;11.27;;;11.00;;
2622;SDS011;1321;48.690;9.022;2023-04-24T01:14:27;10.90;;;10.70;;
2622;SDS011;1321;48.690;9.022;2023-04-24T01:16:55;10.70;;;10.50;;
2622;SDS011;1321;48.690;9.022;2023-04-24T01:19:26;11.23;;;11.00;;
2622;SDS011;1321;48.690;9.022;2023-04-24T01:21:56;11.40;;;11.00;;
2622;SDS011;1321;48.690;9.022;2023-04-24T01:24:30;10.80;;;10.60;;
2622;SDS011;1321;48.690;9.022;2023-04-24T01:26:59;10.57;;;10.37;;
2622;SDS011;1321;48.690;9.022;2023-04-24T01:29:27;10.40;;;10.20;;
2622;SDS011;1321;48.690;9.022;2023-04-24T01:31:56;10.57;;;10.37;;
2622;SDS011;1321;48.690;9.022;2023-04-24T01:34:25;10.60;;;10.40;;
2622;SDS011;1321;48.690;9.022;2023-04-24T01:36:53;10.73;;;10.43;;
2622;SDS011;1321;48.690;9.022;2023-04-24T01:39:22;11.80;;;11.50;;
2622;SDS011;1321;48.690;9.022;2023-04-24T01:41:53;12.00;;;11.73;;
2622;SDS011;1321;48.690;9.022;2023-04-24T01:44:22;12.13;;;11.93;;
2622;SDS011;1321;48.690;9.022;2023-04-24T01:46:50;11.90;;;11.70;;
2622;SDS011;1321;48.690;9.022;2023-04-24T01:49:20;12.20;;;11.90;;
2622;SDS011;1321;48.690;9.022;2023-04-24T01:51:48;12.33;;;12.00;;
2622;SDS011;1321;48.690;9.022;2023-04-24T01:54:16;12.20;;;11.90;;
2622;SDS011;1321;48.690;9.022;2023-04-24T01:56:45;12.30;;;12.00;;
2622;SDS011;1321;48.690;9.022;2023-04-24T01:59:15;12.30;;;12.00;;
2622;SDS011;1321;48.690;9.022;2023-04-24T02:01:45;12.40;;;12.10;;
2622;SDS011;1321;48.690;9.022;2023-04-24T02:04:13;11.47;;;11.20;;
2622;SDS011;1321;48.690;9.022;2023-04-24T02:06:42;11.50;;;11.20;;
2622;SDS011;1321;48.690;9.022;2023-04-24T02:09:10;11.80;;;11.50;;
2622;SDS011;1321;48.690;9.022;2023-04-24T02:11:38;11.50;;;11.20;;
2622;SDS011;1321;48.690;9.022;2023-04-24T02:14:06;11.47;;;11.17;;
2622;SDS011;1321;48.690;9.022;2023-04-24T02:16:36;11.60;;;11.40;;
2622;SDS011;1321;48.690;9.022;2023-04-24T02:19:04;11.97;;;11.77;;
2622;SDS011;1321;48.690;9.022;2023-04-24T02:21:32;11.23;;;11.00;;
2622;SDS011;1321;48.690;9.022;2023-04-24T02:24:01;11.20;;;11.00;;
2622;SDS011;1321;48.690;9.022;2023-04-24T02:26:29;11.70;;;11.50;;
2622;SDS011;1321;48.690;9.022;2023-04-24T02:28:58;11.50;;;11.30;;
2622;SDS011;1321;48.690;9.022;2023-04-24T02:31:26;11.57;;;11.37;;
2622;SDS011;1321;48.690;9.022;2023-04-24T02:33:56;11.47;;;11.17;;
2622;SDS011;1321;48.690;9.022;2023-04-24T02:36:24;11.20;;;10.90;;
2622;SDS011;1321;48.690;9.022;2023-04-24T02:38:52;11.60;;;11.30;;
2622;SDS011;1321;48.690;9.022;2023-04-24T02:41:20;11.63;;;11.43;;
2622;SDS011;1321;48.690;9.022;2023-04-24T02:43:49;11.40;;;11.20;;
2622;SDS011;1321;48.690;9.022;2023-04-24T02:46:17;12.53;;;11.90;;
2622;SDS011;1321;48.690;9.022;2023-04-24T02:48:45;11.63;;;11.33;;
2622;SDS011;1321;48.690;9.022;2023-04-24T02:51:15;11.27;;;11.07;;
2622;SDS011;1321;48.690;9.022;2023-04-24T02:53:43;11.47;;;11.20;;
2622;SDS011;1321;48.690;9.022;2023-04-24T02:56:11;11.70;;;11.40;;
2622;SDS011;1321;48.690;9.022;2023-04-24T02:58:40;11.70;;;11.40;;
2622;SDS011;1321;48.690;9.022;2023-04-24T03:01:08;11.80;;;11.60;;
2622;SDS011;1321;48.690;9.022;2023-04-24T03:03:37;12.30;;;12.00;;
2622;SDS011;1321;48.690;9.022;2023-04-24T03:06:06;12.53;;;12.23;;
2622;SDS011;1321;48.690;9.022;2023-04-24T03:08:36;12.07;;;11.77;;
2622;SDS011;1321;48.690;9.022;2023-04-24T03:11:05;12.20;;;11.90;;
2622;SDS011;1321;48.690;9.022;2023-04-24T03:13:33;12.00;;;11.77;;
2622;SDS011;1321;48.690;9.022;2023-04-24T03:16:01;12.00;;;11.80;;
2622;SDS011;1321;48.690;9.022;2023-04-24T03:18:29;12.80;;;12.40;;
2622;SDS011;1321;48.690;9.022;2023-04-24T03:20:58;12.90;;;12.60;;
2622;SDS011;1321;48.690;9.022;2023-04-24T03:23:26;13.13;;;12.83;;
2622;SDS011;1321;48.690;9.022;2023-04-24T03:25:55;13.10;;;12.80;;
2622;SDS011;1321;48.690;9.022;2023-04-24T03:28:24;13.00;;;12.70;;
2622;SDS011;1321;48.690;9.022;2023-04-24T03:30:52;13.27;;;12.97;;
2622;SDS011;1321;48.690;9.022;2023-04-24T03:33:20;13.60;;;13.30;;
2622;SDS011;1321;48.690;9.022;2023-04-24T03:35:48;13.30;;;13.00;;
2622;SDS011;1321;48.690;9.022;2023-04-24T03:38:17;13.20;;;12.80;;
2622;SDS011;1321;48.690;9.022;2023-04-24T03:40:45;13.10;;;12.70;;
2622;SDS011;1321;48.690;9.022;2023-04-24T03:43:14;13.13;;;12.73;;
2622;SDS011;1321;48.690;9.022;2023-04-24T03:45:43;13.17;;;12.87;;
2622;SDS011;1321;48.690;9.022;2023-04-24T03:48:11;12.97;;;12.57;;
2622;SDS011;1321;48.690;9.022;2023-04-24T03:50:39;13.03;;;12.57;;
2622;SDS011;1321;48.690;9.022;2023-04-24T03:53:07;12.97;;;12.57;;
2622;SDS011;1321;48.690;9.022;2023-04-24T03:55:35;12.57;;;12.37;;
2622;SDS011;1321;48.690;9.022;2023-04-24T03:58:04;13.30;;;13.00;;
2622;SDS011;1321;48.690;9.022;2023-04-24T04:00:33;13.03;;;12.40;;
2622;SDS011;1321;48.690;9.022;2023-04-24T04:03:03;12.43;;;12.13;;
2622;SDS011;1321;48.690;9.022;2023-04-24T04:05:32;13.20;;;12.60;;
2622;SDS011;1321;48.690;9.022;2023-04-24T04:08:00;13.20;;;12.90;;
2622;SDS011;1321;48.690;9.022;2023-04-24T04:10:29;13.20;;;12.90;;
2622;SDS011;1321;48.690;9.022;2023-04-24T04:12:57;13.17;;;12.87;;
2622;SDS011;1321;48.690;9.022;2023-04-24T04:15:25;13.30;;;13.10;;
2622;SDS011;1321;48.690;9.022;2023-04-24T04:17:55;12.87;;;12.57;;
2622;SDS011;1321;48.690;9.022;2023-04-24T04:20:23;13.30;;;13.00;;
2622;SDS011;1321;48.690;9.022;2023-04-24T04:22:51;13.50;;;13.20;;
2622;SDS011;1321;48.690;9.022;2023-04-24T04:25:19;13.23;;;12.93;;
2622;SDS011;1321;48.690;9.022;2023-04-24T04:27:47;13.67;;;13.30;;
2622;SDS011;1321;48.690;9.022;2023-04-24T04:30:17;13.47;;;13.17;;
2622;SDS011;1321;48.690;9.022;2023-04-24T04:32:47;13.60;;;13.30;;
2622;SDS011;1321;48.690;9.022;2023-04-24T04:35:17;13.60;;;13.20;;
2622;SDS011;1321;48.690;9.022;2023-04-24T04:37:45;13.30;;;13.00;;
2622;SDS011;1321;48.690;9.022;2023-04-24T04:40:13;13.47;;;13.17;;
2622;SDS011;1321;48.690;9.022;2023-04-24T04:42:41;13.50;;;13.10;;
2622;SDS011;1321;48.690;9.022;2023-04-24T04:45:12;13.37;;;12.97;;
2622;SDS011;1321;48.690;9.022;2023-04-24T04:47:42;13.60;;;13.20;;
2622;SDS011;1321;48.690;9.022;2023-04-24T04:50:11;13.43;;;13.13;;
2622;SDS011;1321;48.690;9.022;2023-04-24T04:52:41;13.33;;;13.03;;
2622;SDS011;1321;48.690;9.022;2023-04-24T04:55:09;13.70;;;13.40;;
2622;SDS011;1321;48.690;9.022;2023-04-24T04:57:39;13.53;;;13.23;;
2622;SDS011;1321;48.690;9.022;2023-04-24T05:00:08;13.97;;;13.67;;
2622;SDS011;1321;48.690;9.022;2023-04-24T05:02:38;14.90;;;14.40;;
2622;SDS011;1321;48.690;9.022;2023-04-24T05:05:07;13.90;;;13.53;;
2622;SDS011;1321;48.690;9.022;2023-04-24T05:07:36;14.33;;;13.93;;
2622;SDS011;1321;48.690;9.022;2023-04-24T05:10:06;14.33;;;13.93;;
2622;SDS011;1321;48.690;9.022;2023-04-24T05:12:35;14.37;;;14.00;;
2622;SDS011;1321;48.690;9.022;2023-04-24T05:15:03;14.20;;;13.90;;
2622;SDS011;1321;48.690;9.022;2023-04-24T05:17:32;13.73;;;13.30;;
2622;SDS011;1321;48.690;9.022;2023-04-24T05:20:00;13.97;;;13.67;;
2622;SDS011;1321;48.690;9.022;2023-04-24T05:22:33;14.50;;;13.80;;
2622;SDS011;1321;48.690;9.022;2023-04-24T05:25:02;13.70;;;13.40;;
2622;SDS011;1321;48.690;9.022;2023-04-24T05:27:32;13.90;;;13.60;;
2622;SDS011;1321;48.690;9.022;2023-04-24T05:30:00;14.47;;;13.87;;
2622;SDS011;1321;48.690;9.022;2023-04-24T05:32:28;13.97;;;13.67;;
2622;SDS011;1321;48.690;9.022;2023-04-24T05:34:56;14.40;;;14.00;;
2622;SDS011;1321;48.690;9.022;2023-04-24T05:37:24;14.17;;;13.77;;
2622;SDS011;1321;48.690;9.022;2023-04-24T05:39:53;14.43;;;14.03;;
2622;SDS011;1321;48.690;9.022;2023-04-24T05:42:21;13.70;;;13.30;;
2622;SDS011;1321;48.690;9.022;2023-04-24T05:44:51;14.10;;;13.60;;
2622;SDS011;1321;48.690;9.022;2023-04-24T05:47:23;13.10;;;12.80;;
2622;SDS011;1321;48.690;9.022;2023-04-24T05:49:52;13.70;;;13.10;;
2622;SDS011;1321;48.690;9.022;2023-04-24T05:52:20;13.40;;;13.10;;
2622;SDS011;1321;48.690;9.022;2023-04-24T05:54:48;13.43;;;13.03;;
2622;SDS011;1321;48.690;9.022;2023-04-24T05:57:16;13.00;;;12.70;;
2622;SDS011;1321;48.690;9.022;2023-04-24T05:59:45;13.57;;;13.20;;
2622;SDS011;1321;48.690;9.022;2023-04-24T06:02:14;13.50;;;13.00;;
2622;SDS011;1321;48.690;9.022;2023-04-24T06:04:43;13.87;;;13.27;;
2622;SDS011;1321;48.690;9.022;2023-04-24T06:07:12;13.87;;;13.47;;
2622;SDS011;1321;48.690;9.022;2023-04-24T06:09:40;13.60;;;13.30;;
2622;SDS011;1321;48.690;9.022;2023-04-24T06:12:09;13.33;;;13.00;;
2622;SDS011;1321;48.690;9.022;2023-04-24T06:14:37;13.33;;;13.03;;
2622;SDS011;1321;48.690;9.022;2023-04-24T06:17:05;13.80;;;13.50;;
2622;SDS011;1321;48.690;9.022;2023-04-24T06:19:35;13.67;;;13.37;;
2622;SDS011;1321;48.690;9.022;2023-04-24T06:22:03;13.90;;;13.50;;
2622;SDS011;1321;48.690;9.022;2023-04-24T06:24:32;13.60;;;13.30;;
2622;SDS011;1321;48.690;9.022;2023-04-24T06:27:01;14.00;;;13.60;;
2622;SDS011;1321;48.690;9.022;2023-04-24T06:29:29;14.70;;;14.20;;
2622;SDS011;1321;48.690;9.022;2023-04-24T06:31:57;13.57;;;13.27;;
2622;SDS011;1321;48.690;9.022;2023-04-24T06:34:26;13.40;;;13.10;;
2622;SDS011;1321;48.690;9.022;2023-04-24T06:36:56;13.50;;;13.07;;
2622;SDS011;1321;48.690;9.022;2023-04-24T06:39:25;12.93;;;12.63;;
2622;SDS011;1321;48.690;9.022;2023-04-24T06:41:53;13.03;;;12.73;;
2622;SDS011;1321;48.690;9.022;2023-04-24T06:44:22;13.70;;;13.40;;
2622;SDS011;1321;48.690;9.022;2023-04-24T06:46:50;14.00;;;13.60;;
2622;SDS011;1321;48.690;9.022;2023-04-24T06:49:18;13.70;;;13.30;;
2622;SDS011;1321;48.690;9.022;2023-04-24T06:51:47;14.03;;;13.53;;
2622;SDS011;1321;48.690;9.022;2023-04-24T06:54:16;14.37;;;13.87;;
2622;SDS011;1321;48.690;9.022;2023-04-24T06:56:44;14.00;;;13.60;;
2622;SDS011;1321;48.690;9.022;2023-04-24T06:59:14;14.00;;;13.40;;
2622;SDS011;1321;48.690;9.022;2023-04-24T07:01:42;14.67;;;14.10;;
2622;SDS011;1321;48.690;9.022;2023-04-24T07:04:10;14.23;;;13.83;;
2622;SDS011;1321;48.690;9.022;2023-04-24T07:06:39;14.43;;;14.03;;
2622;SDS011;1321;48.690;9.022;2023-04-24T07:09:08;13.80;;;13.30;;
2622;SDS011;1321;48.690;9.022;2023-04-24T07:11:38;13.30;;;13.00;;
2622;SDS011;1321;48.690;9.022;2023-04-24T07:14:07;14.17;;;13.77;;
2622;SDS011;1321;48.690;9.022;2023-04-24T07:16:35;13.53;;;13.13;;
2622;SDS011;1321;48.690;9.022;2023-04-24T07:19:03;13.50;;;13.20;;
2622;SDS011;1321;48.690;9.022;2023-04-24T07:21:31;13.40;;;13.10;;
2622;SDS011;1321;48.690;9.022;2023-04-24T07:24:00;14.10;;;13.40;;
2622;SDS011;1321;48.690;9.022;2023-04-24T07:26:28;13.20;;;12.90;;
2622;SDS011;1321;48.690;9.022;2023-04-24T07:28:58;13.43;;;13.10;;
2622;SDS011;1321;48.690;9.022;2023-04-24T07:31:27;13.30;;;12.80;;
2622;SDS011;1321;48.690;9.022;2023-04-24T07:33:55;13.70;;;13.40;;
2622;SDS011;1321;48.690;9.022;2023-04-24T07:36:26;12.90;;;12.60;;
2622;SDS011;1321;48.690;9.022;2023-04-24T07:38:55;13.57;;;13.27;;
2622;SDS011;1321;48.690;9.022;2023-04-24T07:41:23;14.00;;;13.70;;
2622;SDS011;1321;48.690;9.022;2023-04-24T07:43:51;13.63;;;13.33;;
2622;SDS011;1321;48.690;9.022;2023-04-24T07:46:21;14.10;;;13.70;;
2622;SDS011;1321;48.690;9.022;2023-04-24T07:48:51;13.83;;;13.43;;
2622;SDS011;1321;48.690;9.022;2023-04-24T07:51:38;13.97;;;13.67;;
2622;SDS011;1321;48.690;9.022;2023-04-24T07:54:06;13.50;;;13.00;;
2622;SDS011;1321;48.690;9.022;2023-04-24T07:56:35;13.53;;;13.13;;
2622;SDS011;1321;48.690;9.022;2023-04-24T07:59:05;13.53;;;13.23;;
2622;SDS011;1321;48.690;9.022;2023-04-24T08:01:35;13.60;;;13.30;;
2622;SDS011;1321;48.690;9.022;2023-04-24T08:04:03;13.93;;;13.63;;
2622;SDS011;1321;48.690;9.022;2023-04-24T08:06:32;13.00;;;12.70;;
2622;SDS011;1321;48.690;9.022;2023-04-24T08:09:01;13.67;;;13.13;;
2622;SDS011;1321;48.690;9.022;2023-04-24T08:11:29;12.93;;;12.53;;
2622;SDS011;1321;48.690;9.022;2023-04-24T08:13:58;13.13;;;12.50;;
2622;SDS011;1321;48.690;9.022;2023-04-24T08:16:26;12.83;;;12.43;;
2622;SDS011;1321;48.690;9.022;2023-04-24T08:18:56;13.20;;;12.80;;
2622;SDS011;1321;48.690;9.022;2023-04-24T08:21:24;12.93;;;12.60;;
2622;SDS011;1321;48.690;9.022;2023-04-24T08:23:53;13.53;;;13.23;;
2622;SDS011;1321;48.690;9.022;2023-04-24T08:26:21;12.87;;;12.57;;
2622;SDS011;1321;48.690;9.022;2023-04-24T08:28:51;13.00;;;12.70;;
2622;SDS011;1321;48.690;9.022;2023-04-24T08:31:19;13.40;;;12.83;;
2622;SDS011;1321;48.690;9.022;2023-04-24T08:33:49;12.60;;;12.20;;
2622;SDS011;1321;48.690;9.022;2023-04-24T08:36:19;12.77;;;12.47;;
2622;SDS011;1321;48.690;9.022;2023-04-24T08:38:51;12.70;;;12.30;;
2622;SDS011;1321;48.690;9.022;2023-04-24T08:41:20;12.43;;;12.23;;
2622;SDS011;1321;48.690;9.022;2023-04-24T08:43:50;12.60;;;12.30;;
2622;SDS011;1321;48.690;9.022;2023-04-24T08:46:19;11.57;;;11.23;;
2622;SDS011;1321;48.690;9.022;2023-04-24T08:48:48;11.87;;;11.57;;
2622;SDS011;1321;48.690;9.022;2023-04-24T08:51:19;11.57;;;11.30;;
2622;SDS011;1321;48.690;9.022;2023-04-24T08:53:47;12.20;;;11.90;;
2622;SDS011;1321;48.690;9.022;2023-04-24T08:56:16;11.90;;;11.60;;
2622;SDS011;1321;48.690;9.022;2023-04-24T08:58:45;11.87;;;11.50;;
2622;SDS011;1321;48.690;9.022;2023-04-24T09:01:14;12.93;;;12.37;;
2622;SDS011;1321;48.690;9.022;2023-04-24T09:03:42;12.03;;;11.83;;
2622;SDS011;1321;48.690;9.022;2023-04-24T09:06:11;12.00;;;11.70;;
2622;SDS011;1321;48.690;9.022;2023-04-24T09:08:41;11.70;;;11.40;;
2622;SDS011;1321;48.690;9.022;2023-04-24T09:11:11;11.70;;;11.40;;
2622;SDS011;1321;48.690;9.022;2023-04-24T09:13:39;11.40;;;11.00;;
2622;SDS011;1321;48.690;9.022;2023-04-24T09:16:08;10.77;;;10.57;;
2622;SDS011;1321;48.690;9.022;2023-04-24T09:18:37;10.93;;;10.73;;
2622;SDS011;1321;48.690;9.022;2023-04-24T09:21:06;10.97;;;10.67;;
2622;SDS011;1321;48.690;9.022;2023-04-24T09:23:36;11.43;;;11.03;;
2622;SDS011;1321;48.690;9.022;2023-04-24T09:26:06;10.30;;;10.10;;
2622;SDS011;1321;48.690;9.022;2023-04-24T09:28:37;10.00;;;9.70;;
2622;SDS011;1321;48.690;9.022;2023-04-24T09:31:08;9.83;;;9.63;;
2622;SDS011;1321;48.690;9.022;2023-04-24T09:33:40;9.80;;;9.40;;
2622;SDS011;1321;48.690;9.022;2023-04-24T09:36:25;9.77;;;9.43;;
2622;SDS011;1321;48.690;9.022;2023-04-24T09:38:57;10.53;;;10.13;;
2622;SDS011;1321;48.690;9.022;2023-04-24T09:41:27;9.50;;;9.20;;
2622;SDS011;1321;48.690;9.022;2023-04-24T09:43:56;9.83;;;9.63;;
2622;SDS011;1321;48.690;9.022;2023-04-24T09:46:29;9.80;;;9.60;;
2622;SDS011;1321;48.690;9.022;2023-04-24T09:49:04;9.53;;;9.33;;
2622;SDS011;1321;48.690;9.022;2023-04-24T09:51:37;9.67;;;9.37;;
2622;SDS011;1321;48.690;9.022;2023-04-24T09:54:11;9.10;;;8.70;;
2622;SDS011;1321;48.690;9.022;2023-04-24T09:56:45;8.73;;;8.50;;
2622;SDS011;1321;48.690;9.022;2023-04-24T09:59:15;8.37;;;8.27;;
2622;SDS011;1321;48.690;9.022;2023-04-24T10:01:45;9.03;;;8.73;;
2622;SDS011;1321;48.690;9.022;2023-04-24T10:04:15;9.40;;;9.10;;
2622;SDS011;1321;48.690;9.022;2023-04-24T10:06:45;8.40;;;8.20;;
2622;SDS011;1321;48.690;9.022;2023-04-24T10:09:15;9.10;;;8.90;;
2622;SDS011;1321;48.690;9.022;2023-04-24T10:11:46;8.83;;;8.63;;
2622;SDS011;1321;48.690;9.022;2023-04-24T10:14:15;8.60;;;8.40;;
2622;SDS011;1321;48.690;9.022;2023-04-24T10:16:45;8.60;;;8.40;;
2622;SDS011;1321;48.690;9.022;2023-04-24T10:19:14;8.30;;;8.00;;
2622;SDS011;1321;48.690;9.022;2023-04-24T10:21:45;8.70;;;8.50;;
2622;SDS011;1321;48.690;9.022;2023-04-24T10:24:13;9.23;;;9.03;;
2622;SDS011;1321;48.690;9.022;2023-04-24T10:26:43;8.70;;;8.50;;
2622;SDS011;1321;48.690;9.022;2023-04-24T10:29:16;8.27;;;8.17;;
2622;SDS011;1321;48.690;9.022;2023-04-24T10:31:45;8.60;;;8.40;;
2622;SDS011;1321;48.690;9.022;2023-04-24T10:34:14;8.93;;;8.73;;
2622;SDS011;1321;48.690;9.022;2023-04-24T10:36:46;8.80;;;8.50;;
2622;SDS011;1321;48.690;9.022;2023-04-24T10:39:19;7.90;;;7.80;;
2622;SDS011;1321;48.690;9.022;2023-04-24T10:41:54;9.37;;;9.07;;
2622;SDS011;1321;48.690;9.022;2023-04-24T10:44:24;9.80;;;9.53;;
2622;SDS011;1321;48.690;9.022;2023-04-24T10:46:53;8.77;;;8.57;;
2622;SDS011;1321;48.690;9.022;2023-04-24T10:49:27;9.00;;;8.80;;
2622;SDS011;1321;48.690;9.022;2023-04-24T10:51:59;8.30;;;8.10;;
2622;SDS011;1321;48.690;9.022;2023-04-24T10:54:34;8.50;;;8.30;;
2622;SDS011;1321;48.690;9.022;2023-04-24T11:00:16;8.40;;;8.20;;
2622;SDS011;1321;48.690;9.022;2023-04-24T11:02:46;8.20;;;8.10;;
2622;SDS011;1321;48.690;9.022;2023-04-24T11:05:20;8.80;;;8.60;;
2622;SDS011;1321;48.690;9.022;2023-04-24T11:10:40;8.93;;;8.73;;
2622;SDS011;1321;48.690;9.022;2023-04-24T11:13:09;8.40;;;8.20;;
2622;SDS011;1321;48.690;9.022;2023-04-24T11:15:38;8.83;;;8.63;;
2622;SDS011;1321;48.690;9.022;2023-04-24T11:18:12;9.60;;;9.00;;
2622;SDS011;1321;48.690;9.022;2023-04-24T11:20:42;8.23;;;8.03;;
2622;SDS011;1321;48.690;9.022;2023-04-24T11:23:11;8.63;;;8.43;;
2622;SDS011;1321;48.690;9.022;2023-04-24T11:25:41;8.40;;;8.20;;
2622;SDS011;1321;48.690;9.022;2023-04-24T11:28:14;8.70;;;8.50;;
2622;SDS011;1321;48.690;9.022;2023-04-24T11:30:43;8.80;;;8.60;;
2622;SDS011;1321;48.690;9.022;2023-04-24T11:33:12;8.40;;;8.20;;
2622;SDS011;1321;48.690;9.022;2023-04-24T11:35:47;8.47;;;8.27;;
2622;SDS011;1321;48.690;9.022;2023-04-24T11:38:16;8.67;;;8.47;;
2622;SDS011;1321;48.690;9.022;2023-04-24T11:40:50;8.43;;;8.33;;
2622;SDS011;1321;48.690;9.022;2023-04-24T11:43:21;8.23;;;7.97;;
2622;SDS011;1321;48.690;9.022;2023-04-24T11:45:49;8.43;;;8.13;;
2622;SDS011;1321;48.690;9.022;2023-04-24T11:48:18;8.40;;;8.20;;
2622;SDS011;1321;48.690;9.022;2023-04-24T11:50:49;8.50;;;8.30;;
2622;SDS011;1321;48.690;9.022;2023-04-24T11:53:18;8.63;;;8.33;;
2622;SDS011;1321;48.690;9.022;2023-04-24T11:55:48;7.80;;;7.70;;
2622;SDS011;1321;48.690;9.022;2023-04-24T11:58:16;8.20;;;8.07;;
2622;SDS011;1321;48.690;9.022;2023-04-24T12:00:55;9.27;;;8.70;;
2622;SDS011;1321;48.690;9.022;2023-04-24T12:03:24;8.40;;;8.20;;
2622;SDS011;1321;48.690;9.022;2023-04-24T12:05:55;8.40;;;8.20;;
2622;SDS011;1321;48.690;9.022;2023-04-24T12:08:33;8.30;;;8.00;;
2622;SDS011;1321;48.690;9.022;2023-04-24T12:11:04;8.33;;;8.13;;
2622;SDS011;1321;48.690;9.022;2023-04-24T12:13:35;8.03;;;7.83;;
2622;SDS011;1321;48.690;9.022;2023-04-24T12:16:04;7.97;;;7.70;;
2622;SDS011;1321;48.690;9.022;2023-04-24T12:18:32;8.00;;;7.80;;
2622;SDS011;1321;48.690;9.022;2023-04-24T12:21:14;7.77;;;7.60;;
2622;SDS011;1321;48.690;9.022;2023-04-24T12:23:46;7.77;;;7.57;;
2622;SDS011;1321;48.690;9.022;2023-04-24T12:26:18;7.60;;;7.40;;
2622;SDS011;1321;48.690;9.022;2023-04-24T12:28:49;7.70;;;7.50;;
2622;SDS011;1321;48.690;9.022;2023-04-24T12:31:18;7.90;;;7.80;;
2622;SDS011;1321;48.690;9.022;2023-04-24T12:33:48;7.90;;;7.70;;
2622;SDS011;1321;48.690;9.022;2023-04-24T12:36:17;8.43;;;8.13;;
2622;SDS011;1321;48.690;9.022;2023-04-24T12:38:45;8.20;;;8.00;;
2622;SDS011;1321;48.690;9.022;2023-04-24T12:41:13;7.90;;;7.70;;
2622;SDS011;1321;48.690;9.022;2023-04-24T12:43:52;8.60;;;8.30;;
2622;SDS011;1321;48.690;9.022;2023-04-24T12:46:21;8.53;;;8.23;;
2622;SDS011;1321;48.690;9.022;2023-04-24T12:48:50;8.13;;;8.03;;
2622;SDS011;1321;48.690;9.022;2023-04-24T12:51:18;8.20;;;8.00;;
2622;SDS011;1321;48.690;9.022;2023-04-24T12:53:46;8.47;;;8.30;;
2622;SDS011;1321;48.690;9.022;2023-04-24T12:56:14;8.50;;;8.30;;
2622;SDS011;1321;48.690;9.022;2023-04-24T12:58:43;8.80;;;8.53;;
2622;SDS011;1321;48.690;9.022;2023-04-24T13:01:12;8.20;;;8.10;;
2622;SDS011;1321;48.690;9.022;2023-04-24T13:03:41;8.40;;;8.10;;
2622;SDS011;1321;48.690;9.022;2023-04-24T13:06:10;9.27;;;8.77;;
2622;SDS011;1321;48.690;9.022;2023-04-24T13:08:38;8.50;;;8.30;;
2622;SDS011;1321;48.690;9.022;2023-04-24T13:11:06;8.30;;;8.10;;
2622;SDS011;1321;48.690;9.022;2023-04-24T13:13:34;7.80;;;7.67;;
2622;SDS011;1321;48.690;9.022;2023-04-24T13:16:03;8.00;;;7.80;;
2622;SDS011;1321;48.690;9.022;2023-04-24T13:18:32;7.70;;;7.50;;
2622;SDS011;1321;48.690;9.022;2023-04-24T13:21:01;8.40;;;8.20;;
2622;SDS011;1321;48.690;9.022;2023-04-24T13:23:29;8.80;;;8.50;;
2622;SDS011;1321;48.690;9.022;2023-04-24T13:25:57;9.00;;;8.70;;
2622;SDS011;1321;48.690;9.022;2023-04-24T13:28:25;8.47;;;8.27;;
2622;SDS011;1321;48.690;9.022;2023-04-24T13:30:54;9.73;;;9.13;;
2622;SDS011;1321;48.690;9.022;2023-04-24T13:33:22;8.60;;;8.40;;
2622;SDS011;1321;48.690;9.022;2023-04-24T13:35:52;8.70;;;8.50;;
2622;SDS011;1321;48.690;9.022;2023-04-24T13:38:20;8.60;;;8.40;;
2622;SDS011;1321;48.690;9.022;2023-04-24T13:40:49;8.60;;;8.40;;
2622;SDS011;1321;48.690;9.022;2023-04-24T13:43:17;9.10;;;8.80;;
2622;SDS011;1321;48.690;9.022;2023-04-24T13:45:46;9.00;;;8.80;;
2622;SDS011;1321;48.690;9.022;2023-04-24T13:48:14;9.00;;;8.80;;
2622;SDS011;1321;48.690;9.022;2023-04-24T13:50:43;8.97;;;8.77;;
2622;SDS011;1321;48.690;9.022;2023-04-24T13:53:16;9.23;;;8.93;;
2622;SDS011;1321;48.690;9.022;2023-04-24T13:55:44;9.43;;;9.03;;
2622;SDS011;1321;48.690;9.022;2023-04-24T13:58:12;8.00;;;7.70;;
2622;SDS011;1321;48.690;9.022;2023-04-24T14:00:41;8.03;;;7.63;;
2622;SDS011;1321;48.690;9.022;2023-04-24T14:03:09;7.90;;;7.70;;
2622;SDS011;1321;48.690;9.022;2023-04-24T14:05:38;8.33;;;8.07;;
2622;SDS011;1321;48.690;9.022;2023-04-24T14:08:06;8.27;;;7.97;;
2622;SDS011;1321;48.690;9.022;2023-04-24T14:10:36;7.30;;;7.10;;
2622;SDS011;1321;48.690;9.022;2023-04-24T14:13:04;7.77;;;7.57;;
2622;SDS011;1321;48.690;9.022;2023-04-24T14:15:33;8.20;;;8.00;;
2622;SDS011;1321;48.690;9.022;2023-04-24T14:18:03;9.00;;;8.80;;
2622;SDS011;1321;48.690;9.022;2023-04-24T14:20:31;8.90;;;8.70;;
2622;SDS011;1321;48.690;9.022;2023-04-24T14:23:00;9.57;;;9.10;;
2622;SDS011;1321;48.690;9.022;2023-04-24T14:25:28;9.73;;;9.43;;
2622;SDS011;1321;48.690;9.022;2023-04-24T14:27:57;10.07;;;9.67;;
2622;SDS011;1321;48.690;9.022;2023-04-24T14:30:26;9.80;;;9.50;;
2622;SDS011;1321;48.690;9.022;2023-04-24T14:32:54;9.50;;;9.20;;
2622;SDS011;1321;48.690;9.022;2023-04-24T14:35:22;9.83;;;9.53;;
2622;SDS011;1321;48.690;9.022;2023-04-24T14:37:50;9.97;;;9.57;;
2622;SDS011;1321;48.690;9.022;2023-04-24T14:40:19;9.67;;;9.40;;
2622;SDS011;1321;48.690;9.022;2023-04-24T14:43:08;9.90;;;9.70;;
2622;SDS011;1321;48.690;9.022;2023-04-24T14:45:37;9.50;;;9.30;;
2622;SDS011;1321;48.690;9.022;2023-04-24T14:48:07;10.17;;;9.87;;
2622;SDS011;1321;48.690;9.022;2023-04-24T14:50:35;9.30;;;9.00;;
2622;SDS011;1321;48.690;9.022;2023-04-24T14:53:04;9.80;;;9.50;;
2622;SDS011;1321;48.690;9.022;2023-04-24T14:55:32;8.60;;;8.40;;
2622;SDS011;1321;48.690;9.022;2023-04-24T14:58:02;8.40;;;8.20;;
2622;SDS011;1321;48.690;9.022;2023-04-24T15:00:32;8.73;;;8.50;;
2622;SDS011;1321;48.690;9.022;2023-04-24T15:03:00;8.27;;;7.97;;
2622;SDS011;1321;48.690;9.022;2023-04-24T15:05:29;9.90;;;9.50;;
2622;SDS011;1321;48.690;9.022;2023-04-24T15:07:58;9.40;;;9.10;;
2622;SDS011;1321;48.690;9.022;2023-04-24T15:10:26;9.30;;;9.00;;
2622;SDS011;1321;48.690;9.022;2023-04-24T15:12:55;9.30;;;9.00;;
2622;SDS011;1321;48.690;9.022;2023-04-24T15:15:23;8.87;;;8.67;;
2622;SDS011;1321;48.690;9.022;2023-04-24T15:17:54;8.70;;;8.50;;